createdAt,value
2019-02-27T00:02:31.037Z,2.00
2019-02-27T00:05:01.057Z,2.20
2019-02-27T00:07:30.105Z,2.50
2019-02-27T00:10:06.851Z,2.70
2019-02-27T00:12:35.788Z,2.90
2019-02-27T00:15:09.556Z,3.10
2019-02-27T00:17:37.940Z,3.20
2019-02-27T00:20:12.201Z,3.20
2019-02-27T00:22:47.918Z,3.20
2019-02-27T00:25:16.129Z,3.10
2019-02-27T00:27:48.883Z,2.90
2019-02-27T00:30:15.637Z,2.70
2019-02-27T00:32:44.037Z,2.50
2019-02-27T00:35:15.368Z,2.20
2019-02-27T00:37:43.768Z,1.90
2019-02-27T00:40:12.398Z,1.60
2019-02-27T00:42:43.504Z,1.50
2019-02-27T00:45:13.269Z,1.30
2019-02-27T00:47:44.665Z,1.10
2019-02-27T00:50:18.886Z,1.00
2019-02-27T00:52:51.100Z,0.80
2019-02-27T00:55:26.065Z,0.70
2019-02-27T00:57:56.100Z,0.60
2019-02-27T01:00:29.083Z,0.50
2019-02-27T01:03:00.704Z,0.40
2019-02-27T01:05:29.162Z,0.30
2019-02-27T01:08:06.805Z,0.30
2019-02-27T01:10:35.197Z,0.30
2019-02-27T01:13:03.581Z,0.40
2019-02-27T01:15:32.048Z,0.50
2019-02-27T01:18:00.441Z,0.60
2019-02-27T01:20:30.867Z,0.60
2019-02-27T01:23:01.816Z,0.70
2019-02-27T01:25:30.217Z,0.70
2019-02-27T01:28:05.665Z,0.60
2019-02-27T01:30:34.089Z,0.70
2019-02-27T01:33:06.690Z,1.00
2019-02-27T01:35:37.751Z,1.20
2019-02-27T01:38:12.199Z,1.30
2019-02-27T01:40:43.739Z,1.40
2019-02-27T01:43:18.075Z,1.70
2019-02-27T01:45:46.448Z,1.90
2019-02-27T01:48:17.833Z,1.80
2019-02-27T01:50:46.208Z,1.60
2019-02-27T01:53:23.140Z,1.50
2019-02-27T01:55:51.541Z,1.50
2019-02-27T01:58:23.875Z,1.70
2019-02-27T02:00:56.094Z,1.70
2019-02-27T02:03:28.649Z,1.80
2019-02-27T02:06:00.082Z,1.90
2019-02-27T02:08:28.529Z,2.00
2019-02-27T02:11:01.357Z,2.10
2019-02-27T04:29:41.063Z,-0.20
2019-02-27T04:32:12.399Z,-0.40
2019-02-27T04:34:47.386Z,-0.60
2019-02-27T04:37:23.769Z,-0.80
2019-02-27T04:39:52.165Z,-0.90
2019-02-27T04:42:25.730Z,-1.10
2019-02-27T04:44:59.081Z,-1.20
2019-02-27T04:47:29.184Z,-1.40
2019-02-27T04:49:58.381Z,-1.60
2019-02-27T04:52:26.769Z,-1.70
2019-02-27T04:54:58.150Z,-1.90
2019-02-27T04:57:26.790Z,-1.90
2019-02-27T04:59:55.182Z,-2.00
2019-02-27T05:02:36.679Z,-1.90
2019-02-27T05:05:02.308Z,-1.90
2019-02-27T05:07:35.010Z,-1.90
2019-02-27T05:10:07.292Z,-1.90
2019-02-27T05:12:38.732Z,-1.90
2019-02-27T05:15:09.420Z,-1.70
2019-02-27T05:17:37.828Z,-1.50
2019-02-27T05:20:12.495Z,-1.30
2019-02-27T05:22:40.797Z,-1.20
2019-02-27T05:25:12.144Z,-1.00
2019-02-27T05:27:44.028Z,-1.00
2019-02-27T05:30:15.185Z,-1.10
2019-02-27T05:32:43.577Z,-1.20
2019-02-27T05:35:11.978Z,-1.20
2019-02-27T05:37:43.407Z,-1.20
2019-02-27T05:40:12.262Z,-1.10
2019-02-27T05:42:46.102Z,-0.70
2019-02-27T05:45:16.037Z,-0.60
2019-02-27T05:47:47.453Z,-0.40
2019-02-27T05:50:15.861Z,-0.30
2019-02-27T05:52:49.680Z,-0.30
2019-02-27T05:55:27.173Z,-0.30
2019-02-27T05:57:55.553Z,-0.30
2019-02-27T06:00:24.009Z,-0.30
2019-02-27T06:02:52.647Z,-0.30
2019-02-27T06:05:29.697Z,-0.30
2019-02-27T06:08:02.051Z,-0.30
2019-02-27T06:10:30.005Z,-0.30
2019-02-27T06:13:01.093Z,-0.20
2019-02-27T06:15:29.489Z,-0.20
2019-02-27T06:17:57.879Z,-0.10
2019-02-27T06:20:32.290Z,-0.10
2019-02-27T06:23:04.170Z,0.00
2019-02-27T06:25:33.745Z,0.00
2019-02-27T06:28:02.370Z,0.10
2019-02-27T06:30:33.957Z,0.20
2019-02-27T06:33:11.887Z,0.30
2019-02-27T06:35:45.961Z,0.40
2019-02-27T06:38:14.369Z,0.50
2019-02-27T06:40:45.201Z,0.60
2019-02-27T06:43:16.373Z,0.60
2019-02-27T06:45:46.423Z,0.50
2019-02-27T06:48:15.138Z,0.50
2019-02-27T06:50:46.574Z,0.60
2019-02-27T06:53:16.802Z,0.60
2019-02-27T06:55:45.413Z,0.60
2019-02-27T06:58:14.821Z,0.60
2019-02-27T07:00:44.639Z,0.40
2019-02-27T07:03:14.894Z,0.60
2019-02-27T07:05:45.570Z,1.10
2019-02-27T07:08:13.395Z,2.00
2019-02-27T07:10:42.033Z,2.90
2019-02-27T07:13:10.514Z,3.80
2019-02-27T07:15:39.133Z,4.60
2019-02-27T07:18:08.254Z,5.30
2019-02-27T07:20:36.641Z,5.90
2019-02-27T07:23:06.687Z,6.30
2019-02-27T07:25:35.413Z,6.80
2019-02-27T07:28:09.957Z,7.40
2019-02-27T07:30:39.895Z,7.60
2019-02-27T07:33:09.101Z,7.90
2019-02-27T07:35:40.660Z,8.10
2019-02-27T07:38:14.314Z,8.30
2019-02-27T07:40:43.515Z,8.50
2019-02-27T07:43:15.468Z,8.50
2019-02-27T07:45:45.392Z,8.40
2019-02-27T07:48:15.544Z,8.40
2019-02-27T07:50:48.389Z,8.40
2019-02-27T07:53:17.772Z,8.30
2019-02-27T07:55:47.421Z,8.60
2019-02-27T07:58:19.042Z,8.60
2019-02-27T08:00:49.942Z,8.40
2019-02-27T08:03:17.558Z,8.60
2019-02-27T08:05:50.525Z,8.50
2019-02-27T08:08:23.399Z,8.60
2019-02-27T08:10:49.265Z,8.70
2019-02-27T08:13:17.773Z,8.80
2019-02-27T08:15:46.153Z,8.80
2019-02-27T08:18:29.555Z,8.70
2019-02-27T08:20:57.589Z,9.00
2019-02-27T08:23:28.658Z,9.30
2019-02-27T08:25:57.288Z,9.30
2019-02-27T08:28:28.772Z,9.20
2019-02-27T08:31:12.429Z,9.30
2019-02-27T08:33:40.810Z,9.60
2019-02-27T08:36:12.769Z,10.10
2019-02-27T08:38:41.154Z,10.10
2019-02-27T08:41:12.185Z,10.20
2019-02-27T08:43:41.221Z,10.20
2019-02-27T08:46:10.749Z,10.10
2019-02-27T08:48:39.141Z,10.60
2019-02-27T08:51:08.864Z,11.10
2019-02-27T08:53:37.838Z,11.00
2019-02-27T08:56:09.998Z,11.60
2019-02-27T08:58:44.234Z,11.90
2019-02-27T09:01:25.102Z,12.30
2019-02-27T09:03:56.598Z,12.50
2019-02-27T09:06:29.541Z,12.60
2019-02-27T09:08:57.931Z,12.50
2019-02-27T09:11:32.293Z,12.40
2019-02-27T09:14:06.337Z,12.60
2019-02-27T09:16:34.717Z,12.80
2019-02-27T09:19:10.050Z,13.00
2019-02-27T09:21:38.749Z,13.50
2019-02-27T09:24:09.806Z,14.00
2019-02-27T09:26:38.246Z,14.10
2019-02-27T09:29:10.638Z,14.10
2019-02-27T09:31:50.252Z,14.70
2019-02-27T09:34:12.432Z,15.30
2019-02-27T09:36:44.885Z,16.00
2019-02-27T09:39:15.152Z,16.20
2019-02-27T09:41:46.913Z,16.10
2019-02-27T09:44:16.017Z,16.70
2019-02-27T09:46:44.398Z,17.10
2019-02-27T09:49:13.545Z,17.40
2019-02-27T09:51:43.571Z,17.30
2019-02-27T09:54:15.802Z,17.40
2019-02-27T09:56:44.451Z,17.90
2019-02-27T09:59:12.849Z,17.70
2019-02-27T10:01:41.234Z,17.90
2019-02-27T10:04:09.758Z,18.30
2019-02-27T10:06:42.776Z,18.10
2019-02-27T10:09:14.019Z,18.50
2019-02-27T10:11:48.004Z,19.40
2019-02-27T10:14:17.063Z,19.30
2019-02-27T10:16:49.005Z,19.70
2019-02-27T10:19:18.940Z,20.00
2019-02-27T10:21:47.622Z,20.00
2019-02-27T10:24:16.081Z,19.90
2019-02-27T10:26:44.481Z,19.70
2019-02-27T10:29:13.537Z,19.90
2019-02-27T10:31:43.181Z,20.40
2019-02-27T10:34:11.578Z,20.60
2019-02-27T10:36:47.563Z,21.10
2019-02-27T10:39:15.670Z,21.80
2019-02-27T10:41:50.564Z,21.80
2019-02-27T10:44:18.969Z,22.30
2019-02-27T10:46:52.084Z,22.70
2019-02-27T10:49:21.799Z,22.40
2019-02-27T10:51:51.317Z,22.50
2019-02-27T10:54:22.593Z,22.10
2019-02-27T10:56:56.340Z,21.90
2019-02-27T10:59:26.697Z,21.80
2019-02-27T11:01:55.105Z,21.80
2019-02-27T11:04:29.534Z,22.10
2019-02-27T11:07:01.647Z,21.80
2019-02-27T11:09:32.767Z,21.90
2019-02-27T11:12:07.341Z,21.80
2019-02-27T11:14:38.705Z,22.30
2019-02-27T11:17:07.101Z,22.80
2019-02-27T11:19:40.264Z,23.40
2019-02-27T11:22:08.912Z,23.80
2019-02-27T11:24:42.779Z,23.90
2019-02-27T11:27:11.162Z,23.10
2019-02-27T11:29:39.806Z,23.70
2019-02-27T11:32:09.093Z,24.00
2019-02-27T11:34:40.428Z,24.40
2019-02-27T11:37:21.197Z,25.00
2019-02-27T11:39:53.809Z,25.00
2019-02-27T11:42:28.952Z,24.30
2019-02-27T11:44:57.932Z,24.60
2019-02-27T11:47:26.316Z,25.20
2019-02-27T11:49:57.648Z,25.80
2019-02-27T11:52:29.024Z,26.10
2019-02-27T11:55:02.625Z,26.10
2019-02-27T11:57:32.901Z,26.50
2019-02-27T12:00:01.294Z,26.00
2019-02-27T12:02:37.000Z,26.60
2019-02-27T12:05:08.934Z,26.10
2019-02-27T12:07:39.586Z,25.40
2019-02-27T12:10:16.082Z,25.20
2019-02-27T12:12:45.149Z,24.90
2019-02-27T12:15:21.775Z,25.00
2019-02-27T12:17:50.186Z,25.60
2019-02-27T12:20:21.673Z,24.80
2019-02-27T12:22:51.873Z,24.60
2019-02-27T12:25:29.968Z,24.90
2019-02-27T12:28:03.426Z,25.40
2019-02-27T12:30:38.221Z,25.80
2019-02-27T12:33:12.276Z,26.10
2019-02-27T12:35:46.057Z,26.20
2019-02-27T12:38:16.105Z,26.30
2019-02-27T12:40:47.221Z,26.50
2019-02-27T12:43:18.358Z,26.10
2019-02-27T12:45:47.776Z,26.10
2019-02-27T12:48:16.164Z,25.90
2019-02-27T12:50:51.114Z,25.30
2019-02-27T12:53:21.592Z,25.40
2019-02-27T12:55:49.665Z,24.30
2019-02-27T12:58:18.053Z,24.10
2019-02-27T13:00:46.706Z,24.60
2019-02-27T13:03:15.106Z,24.50
2019-02-27T13:05:44.499Z,24.20
2019-02-27T13:08:12.881Z,24.20
2019-02-27T13:10:41.265Z,24.00
2019-02-27T13:13:09.739Z,24.20
2019-02-27T13:15:38.354Z,24.40
2019-02-27T13:18:08.252Z,24.80
2019-02-27T13:20:36.641Z,25.00
2019-02-27T13:23:05.445Z,23.90
2019-02-27T13:25:34.697Z,24.50
2019-02-27T13:28:03.103Z,25.10
2019-02-27T13:30:32.473Z,24.60
2019-02-27T13:33:02.033Z,24.50
2019-02-27T13:35:32.022Z,23.60
2019-02-27T13:38:00.490Z,23.50
2019-02-27T13:40:34.963Z,24.20
2019-02-27T13:43:01.231Z,24.70
2019-02-27T13:45:32.151Z,24.80
2019-02-27T13:48:04.955Z,24.60
2019-02-27T13:50:31.158Z,24.70
2019-02-27T13:52:59.562Z,24.50
2019-02-27T13:55:35.201Z,24.30
2019-02-27T13:58:03.966Z,24.60
2019-02-27T14:00:35.300Z,25.00
2019-02-27T14:03:06.664Z,24.80
2019-02-27T14:05:36.729Z,25.00
2019-02-27T14:08:05.145Z,25.60
2019-02-27T14:10:36.401Z,25.80
2019-02-27T14:13:09.778Z,25.60
2019-02-27T14:15:37.241Z,24.80
2019-02-27T14:18:10.297Z,25.10
2019-02-27T14:20:38.712Z,25.00
2019-02-27T14:23:07.192Z,24.90
2019-02-27T14:25:38.910Z,25.60
2019-02-27T14:28:08.842Z,26.80
2019-02-27T14:30:55.355Z,27.40
2019-02-27T14:33:26.865Z,27.50
2019-02-27T14:35:59.233Z,27.30
2019-02-27T14:38:29.261Z,27.60
2019-02-27T14:40:59.293Z,28.10
2019-02-27T14:43:29.322Z,28.30
2019-02-27T14:45:57.924Z,28.00
2019-02-27T14:48:26.322Z,27.40
2019-02-27T14:50:54.788Z,27.80
2019-02-27T14:53:27.865Z,27.90
2019-02-27T14:55:56.251Z,27.80
2019-02-27T14:58:25.078Z,27.90
2019-02-27T15:00:57.093Z,28.30
2019-02-27T15:03:29.215Z,28.70
2019-02-27T15:05:55.868Z,29.30
2019-02-27T15:08:25.208Z,29.10
2019-02-27T15:10:54.333Z,29.00
2019-02-27T15:13:22.735Z,28.80
2019-02-27T15:15:51.357Z,28.90
2019-02-27T15:18:23.170Z,28.50
2019-02-27T15:20:52.109Z,28.30
2019-02-27T15:23:20.495Z,28.40
2019-02-27T15:25:48.895Z,27.60
2019-02-27T15:28:18.931Z,26.40
2019-02-27T15:30:47.411Z,25.60
2019-02-27T15:33:16.511Z,25.50
2019-02-27T15:35:45.054Z,25.20
2019-02-27T15:38:13.472Z,25.30
2019-02-27T15:40:41.930Z,25.40
2019-02-27T15:43:11.675Z,24.90
2019-02-27T15:45:47.445Z,23.70
2019-02-27T15:48:10.987Z,22.20
2019-02-27T15:50:39.381Z,20.90
2019-02-27T15:53:14.629Z,19.60
2019-02-27T15:55:45.017Z,18.60
2019-02-27T15:58:19.018Z,17.90
2019-02-27T16:00:52.569Z,17.40
2019-02-27T16:03:22.906Z,17.00
2019-02-27T16:05:52.108Z,16.70
2019-02-27T16:08:23.433Z,16.40
2019-02-27T16:10:54.776Z,16.30
2019-02-27T16:13:25.861Z,16.00
2019-02-27T16:15:54.269Z,15.80
2019-02-27T16:18:24.312Z,15.70
2019-02-27T16:20:52.945Z,15.50
2019-02-27T16:23:27.288Z,15.30
2019-02-27T16:25:56.594Z,15.20
2019-02-27T16:28:28.150Z,15.00
2019-02-27T16:30:56.528Z,14.90
2019-02-27T16:33:25.904Z,14.70
2019-02-27T16:35:55.930Z,14.60
2019-02-27T16:38:28.419Z,14.70
2019-02-27T16:40:57.172Z,14.60
2019-02-27T16:43:25.561Z,14.30
2019-02-27T16:45:53.969Z,14.00
2019-02-27T16:48:22.360Z,13.80
2019-02-27T16:50:50.753Z,13.50
2019-02-27T16:53:20.647Z,13.30
2019-02-27T16:55:52.053Z,13.00
2019-02-27T16:58:23.578Z,12.70
2019-02-27T17:00:54.576Z,12.40
2019-02-27T17:03:25.091Z,12.10
2019-02-27T17:05:56.637Z,11.70
2019-02-27T17:08:25.039Z,11.30
2019-02-27T17:10:56.398Z,11.00
2019-02-27T17:13:24.788Z,10.70
2019-02-27T17:15:53.196Z,10.40
2019-02-27T17:18:28.430Z,10.20
2019-02-27T17:20:59.002Z,10.00
2019-02-27T17:23:27.365Z,9.80
2019-02-27T17:26:04.396Z,9.60
2019-02-27T17:28:36.205Z,9.40
2019-02-27T17:31:04.673Z,9.10
2019-02-27T17:33:38.904Z,8.90
2019-02-27T17:36:07.551Z,8.70
2019-02-27T17:38:38.873Z,8.50
2019-02-27T17:41:08.749Z,8.40
2019-02-27T17:43:40.609Z,8.30
2019-02-27T17:46:10.643Z,8.40
2019-02-27T17:48:43.299Z,8.20
2019-02-27T17:51:15.101Z,8.10
2019-02-27T17:53:43.479Z,7.80
2019-02-27T17:56:15.197Z,7.50
2019-02-27T17:58:41.985Z,7.40
2019-02-27T18:01:13.871Z,7.30
2019-02-27T18:03:44.496Z,7.20
2019-02-27T18:06:12.893Z,7.00
2019-02-27T18:08:44.073Z,6.90
2019-02-27T18:11:15.586Z,6.70
2019-02-27T18:13:47.757Z,6.70
2019-02-27T18:16:19.638Z,6.70
2019-02-27T18:18:53.745Z,6.50
2019-02-27T18:21:25.079Z,6.30
2019-02-27T18:23:55.309Z,6.10
2019-02-27T18:26:23.825Z,6.00
2019-02-27T18:28:52.404Z,5.90
2019-02-27T18:31:26.522Z,5.90
2019-02-27T18:33:53.714Z,5.80
2019-02-27T18:36:24.842Z,5.70
2019-02-27T18:38:53.485Z,5.70
2019-02-27T18:41:21.890Z,5.60
2019-02-27T18:43:50.350Z,5.60
2019-02-27T18:46:18.745Z,5.60
2019-02-27T18:48:47.190Z,5.50
2019-02-27T18:51:15.756Z,5.50
2019-02-27T18:53:47.356Z,5.40
2019-02-27T18:56:14.298Z,5.40
2019-02-27T18:58:42.715Z,5.40
2019-02-27T19:01:11.173Z,5.40
2019-02-27T19:03:39.578Z,5.40
2019-02-27T19:06:07.966Z,5.30
2019-02-27T19:08:36.362Z,5.20
2019-02-27T19:11:05.867Z,5.10
2019-02-27T19:13:34.267Z,5.00
2019-02-27T19:16:02.967Z,4.90
2019-02-27T19:18:31.402Z,4.80
2019-02-27T19:21:00.193Z,4.70
2019-02-27T19:23:29.198Z,4.60
2019-02-27T19:26:01.756Z,4.50
2019-02-27T19:28:31.791Z,4.30
2019-02-27T19:31:03.141Z,4.20
2019-02-27T19:33:36.589Z,4.10
2019-02-27T19:36:05.073Z,4.00
2019-02-27T19:38:33.526Z,3.90
2019-02-27T19:41:04.152Z,3.90
2019-02-27T19:43:33.832Z,3.80
2019-02-27T19:46:02.233Z,3.70
2019-02-27T19:48:30.889Z,3.60
2019-02-27T19:51:02.522Z,3.50
2019-02-27T19:53:32.553Z,3.50
2019-02-27T19:56:01.708Z,3.40
2019-02-27T19:58:30.123Z,3.30
2019-02-27T20:01:01.189Z,3.20
2019-02-27T20:03:34.893Z,3.20
2019-02-27T20:06:02.737Z,3.10
2019-02-27T20:08:34.122Z,3.20
2019-02-27T20:11:05.987Z,3.20
2019-02-27T20:13:37.500Z,3.40
2019-02-27T20:16:07.694Z,3.40
2019-02-27T20:18:40.490Z,3.40
2019-02-27T20:21:07.046Z,3.40
2019-02-27T20:23:35.430Z,3.40
2019-02-27T20:26:03.947Z,3.40
2019-02-27T20:28:35.052Z,3.20
2019-02-27T20:31:02.698Z,3.20
2019-02-27T20:33:34.229Z,3.30
2019-02-27T20:36:06.524Z,3.40
2019-02-27T20:38:35.049Z,3.50
2019-02-27T20:41:06.011Z,3.50
2019-02-27T20:43:33.557Z,3.30
2019-02-27T20:46:01.966Z,3.20
2019-02-27T20:48:35.992Z,3.00
2019-02-27T20:51:07.998Z,3.00
2019-02-27T20:53:44.757Z,3.00
2019-02-27T20:56:13.402Z,2.90
2019-02-27T20:58:44.639Z,2.80
2019-02-27T21:01:14.520Z,2.60
2019-02-27T21:03:47.470Z,2.50
2019-02-27T21:06:17.507Z,2.40
2019-02-27T21:08:46.326Z,2.40
2019-02-27T21:11:19.329Z,2.40
2019-02-27T21:13:49.715Z,2.40
2019-02-27T21:16:20.814Z,2.40
2019-02-27T21:18:49.310Z,2.40
2019-02-27T21:21:22.659Z,2.40
2019-02-27T21:24:00.352Z,2.30
2019-02-27T21:26:28.738Z,2.20
2019-02-27T21:28:58.857Z,2.10
2019-02-27T21:31:27.789Z,2.00
2019-02-27T21:33:56.805Z,1.90
2019-02-27T21:36:25.441Z,1.80
2019-02-27T21:38:54.085Z,1.70
2019-02-27T21:41:22.467Z,1.60
2019-02-27T21:43:50.862Z,1.40
2019-02-27T21:46:20.225Z,1.30
2019-02-27T21:48:48.653Z,1.10
2019-02-27T21:51:17.100Z,1.00
2019-02-27T21:53:45.488Z,0.90
2019-02-27T21:56:15.234Z,0.80
2019-02-27T21:58:45.207Z,0.80
2019-02-27T22:01:14.245Z,0.70
2019-02-27T22:03:42.636Z,0.60
2019-02-27T22:06:11.037Z,0.60
2019-02-27T22:08:39.563Z,0.70
2019-02-27T22:11:08.673Z,0.80
2019-02-27T22:13:37.058Z,0.80
2019-02-27T22:16:05.457Z,0.80
2019-02-27T22:18:35.548Z,0.80
2019-02-27T22:21:03.917Z,0.70
2019-02-27T22:23:32.300Z,0.70
2019-02-27T22:26:03.074Z,0.70
2019-02-27T22:28:30.834Z,0.70
2019-02-27T22:30:59.197Z,0.80
2019-02-27T22:33:29.018Z,0.70
2019-02-27T22:35:57.637Z,0.80
2019-02-27T22:38:26.840Z,0.80
2019-02-27T22:40:55.730Z,0.90
2019-02-27T22:43:24.124Z,1.10
2019-02-27T22:45:55.314Z,1.10
2019-02-27T22:48:27.683Z,1.10
2019-02-27T22:50:53.816Z,1.20
2019-02-27T22:53:22.209Z,1.20
2019-02-27T22:55:50.601Z,1.10
2019-02-27T22:58:19.676Z,1.00
2019-02-27T23:01:08.813Z,0.90
2019-02-27T23:03:43.134Z,0.80
2019-02-27T23:06:13.023Z,0.70
2019-02-27T23:08:43.793Z,0.60
2019-02-27T23:11:12.489Z,0.50
2019-02-27T23:13:44.161Z,0.50
2019-02-27T23:16:13.722Z,0.40
2019-02-27T23:18:42.737Z,0.30
2019-02-27T23:21:11.450Z,0.10
2019-02-27T23:23:41.545Z,0.00
2019-02-27T23:26:09.900Z,-0.20
2019-02-27T23:28:38.293Z,-0.20
2019-02-27T23:31:07.001Z,-0.40
2019-02-27T23:33:36.620Z,-0.50
2019-02-27T23:36:06.857Z,-0.60
2019-02-27T23:38:35.877Z,-0.70
2019-02-27T23:41:04.406Z,-0.70
2019-02-27T23:43:33.937Z,-0.80
2019-02-27T23:46:02.918Z,-0.70
2019-02-27T23:48:35.891Z,-0.70
2019-02-27T23:51:02.293Z,-0.70
2019-02-27T23:53:30.697Z,-0.70
2019-02-27T23:56:01.021Z,-0.70
2019-02-27T23:58:30.395Z,-0.80
